Lewisville, TX

12:58 AM CDT on June 27, 2017 (GMT -0500)
Reserves at Timbercreek | | Change Station

Elev 541 ft 33.03 °N, 97.02 °W | Updated 20 seconds ago

Partly Cloudy
Partly Cloudy
76.3 °F
Feels Like 78 °F
N
0.0
Wind Variable Wind from SSE

Today
High -- | Low -- °F
--% Chance of Precip.
Yesterday
High -- | Low -- °F
Precip. -- in
Pressure 30.01 in
Visibility 10.0 miles
Clouds Few 3300 ft
Few 5000 ft
Scattered Clouds 24000 ft
Mostly Cloudy 30000 ft
Heat Index 78 °F
Dew Point 67 °F
Humidity 74%
Rainfall 0.00 in
Snow Depth Not available.
6:21 AM 8:40 PM
Waxing Crescent, 14% visible
METAR KDFW 270553Z 13004KT 10SM FEW033 FEW050 SCT240 BKN300 26/21 A3004 RMK AO2 SLP162 T02560211 10294 20256 403110228 50008
Pressure 30.01 in
Visibility 10.0 miles
Clouds Few 3300 ft
Few 5000 ft
Scattered Clouds 24000 ft
Mostly Cloudy 30000 ft
Heat Index 78 °F
Dew Point 67 °F
Humidity 74%
Rainfall 0.00 in
Snow Depth Not available.
6:21 AM 8:40 PM
Waxing Crescent, 14% visible
METAR KDFW 270553Z 13004KT 10SM FEW033 FEW050 SCT240 BKN300 26/21 A3004 RMK AO2 SLP162 T02560211 10294 20256 403110228 50008

Get Severe Weather Alerts

Thanks for signing up!

Be on the lookout for a verification email in your inbox.

You'll start receiving the daily forecast at 6 AM.

×

10-Day Weather Forecast

Almanac

Astronomy

Jun. 27, 2017 Rise Set
Actual Time
Civil Twilight
Nautical Twilight
Astronomical Twilight
Moon
Length of Visible Light
Length of Day
Tomorrow will be .
, % of the Moon is Illuminated

Today's Extremes

State Highs State Lows

Community

WunderPhotos

Category 6

Welcome to Category 6. This is the collective home for Weather Underground's featured writeups by Dr. Jeff Masters (right), Bob Henson (left), Chris Burt, and other regular contributors.

Nearby

Air Quality

  Air Quality AQ Index Pollutant
Not available.

Snow Depth

Station Depth Elevation

Earthquake Activity

City Distance Mag. Time & Date
Minimum magnitude displayed is 2.5.

Coastal Water Temperatures

Place Temperature

Stations

Nearby Weather Stations

Station Location Temp. Windchill Dew Point Humidity Wind Precip. Elev Updated Type
                   

Watches & Warnings

There are currently no watches in effect.